Time;durP1;ratioP1;P1;durP2;ratioP2;P2;SDS_P1;SDS_P2;PMS_P1;PMS_P2;Temp;Humidity;BMP_temperature;BMP_pressure;BME280_temperature;BME280_humidity;BME280_pressure;Samples;Min_cycle;Max_cycle;Signal;HPM_P1;HPM_P2
2021/04/05 00:02:09;;;;;;;42.28;19.63;;;;;;;0.34;100.00;94552.09;10485302;28;20028;-77
2021/04/05 00:07:10;;;;;;;37.80;19.43;;;;;;;0.42;100.00;94569.53;10486201;28;20194;-76
2021/04/05 00:12:11;;;;;;;38.33;19.58;;;;;;;0.43;100.00;94566.69;10485666;28;20075;-77
2021/04/05 00:17:11;;;;;;;32.00;18.05;;;;;;;0.44;100.00;94563.00;10484673;28;20119;-77
2021/04/05 00:22:11;;;;;;;45.95;20.83;;;;;;;0.48;100.00;94553.63;10485091;28;20032;-77
2021/04/05 00:27:12;;;;;;;36.27;18.43;;;;;;;0.46;100.00;94568.91;10485555;28;20033;-77
2021/04/05 00:32:12;;;;;;;37.38;20.60;;;;;;;0.45;100.00;94556.69;10484932;28;20290;-77
2021/04/05 00:37:13;;;;;;;34.43;17.90;;;;;;;0.46;100.00;94563.63;10485189;28;20036;-77
2021/04/05 00:42:13;;;;;;;37.47;18.40;;;;;;;0.47;100.00;94556.47;10485106;28;20043;-77
2021/04/05 00:47:15;;;;;;;34.03;19.23;;;;;;;0.45;100.00;94554.06;10482456;28;20496;-76
2021/04/05 00:52:15;;;;;;;33.13;18.42;;;;;;;0.44;100.00;94557.72;10483661;28;20040;-77
2021/04/05 00:57:16;;;;;;;33.92;18.15;;;;;;;0.50;100.00;94558.69;10483382;28;20043;-76
2021/04/05 01:02:17;;;;;;;33.53;17.55;;;;;;;0.58;100.00;94561.06;10483817;28;20031;-77
2021/04/05 01:07:17;;;;;;;32.58;16.83;;;;;;;0.61;100.00;94552.72;10483682;28;20052;-76
2021/04/05 01:12:18;;;;;;;29.93;16.90;;;;;;;0.68;100.00;94552.66;10484819;28;20064;-77
2021/04/05 01:17:18;;;;;;;30.77;17.25;;;;;;;0.66;100.00;94549.44;10485266;28;20028;-77
2021/04/05 01:22:18;;;;;;;30.07;16.97;;;;;;;0.85;100.00;94552.91;10485605;28;20028;-77
2021/04/05 01:27:19;;;;;;;29.43;16.43;;;;;;;1.02;100.00;94561.16;10485915;28;20099;-77
2021/04/05 01:32:19;;;;;;;26.60;15.73;;;;;;;1.16;100.00;94562.63;10485131;28;20131;-77
2021/04/05 01:37:19;;;;;;;27.23;14.80;;;;;;;1.14;100.00;94555.94;10485358;28;20078;-77
2021/04/05 01:42:20;;;;;;;32.90;16.10;;;;;;;0.92;100.00;94556.34;10485354;28;20031;-77
2021/04/05 01:47:20;;;;;;;27.83;15.02;;;;;;;0.73;100.00;94560.75;10485611;28;20123;-77
2021/04/05 01:52:21;;;;;;;29.77;16.73;;;;;;;0.72;100.00;94561.00;10483206;28;20110;-77
2021/04/05 01:57:21;;;;;;;31.27;16.38;;;;;;;0.73;100.00;94544.91;10490943;28;20361;-77
2021/04/05 02:02:21;;;;;;;29.25;16.17;;;;;;;0.76;100.00;94556.88;10492947;28;20051;-77
2021/04/05 02:07:22;;;;;;;32.50;16.77;;;;;;;0.93;100.00;94559.78;10492284;28;20060;-77
2021/04/05 02:12:22;;;;;;;32.72;17.13;;;;;;;0.90;100.00;94555.75;10489463;28;20037;-77
2021/04/05 02:17:23;;;;;;;32.55;18.40;;;;;;;1.13;100.00;94559.59;10487697;28;20028;-77
2021/04/05 02:22:23;;;;;;;29.50;15.83;;;;;;;0.98;100.00;94552.03;10488345;28;20028;-77
2021/04/05 02:27:24;;;;;;;31.63;16.13;;;;;;;0.88;100.00;94560.44;10488216;28;20396;-77
2021/04/05 02:32:25;;;;;;;33.40;17.17;;;;;;;0.77;100.00;94545.28;10488323;28;20055;-77
2021/04/05 02:37:25;;;;;;;35.55;16.10;;;;;;;0.72;100.00;94550.41;10487053;28;20029;-77
2021/04/05 02:42:26;;;;;;;27.30;15.23;;;;;;;0.84;100.00;94554.78;10487531;28;20028;-77
2021/04/05 02:47:27;;;;;;;28.60;15.60;;;;;;;1.06;100.00;94550.91;10487930;28;20028;-77
2021/04/05 02:52:27;;;;;;;31.45;17.33;;;;;;;1.11;100.00;94562.47;10487808;28;20884;-76
2021/04/05 02:57:27;;;;;;;31.38;16.77;;;;;;;1.29;100.00;94559.03;10485781;28;20029;-77
2021/04/05 03:02:30;;;;;;;29.55;18.10;;;;;;;1.46;100.00;94559.25;10485869;28;20024;-77
2021/04/05 03:07:31;;;;;;;31.50;17.70;;;;;;;1.44;100.00;94574.56;10486204;28;20061;-77
2021/04/05 03:12:34;;;;;;;28.42;15.85;;;;;;;1.42;100.00;94563.38;10486323;28;20387;-77
2021/04/05 03:17:36;;;;;;;30.63;18.08;;;;;;;1.31;100.00;94570.22;10486559;28;20032;-77
2021/04/05 03:22:39;;;;;;;27.60;15.32;;;;;;;1.19;100.00;94571.97;10485240;28;20039;-77
2021/04/05 03:27:39;;;;;;;32.40;15.48;;;;;;;1.00;100.00;94574.56;10486165;28;20406;-77
2021/04/05 03:32:42;;;;;;;25.63;14.73;;;;;;;0.94;100.00;94578.09;10485684;28;20046;-77
2021/04/05 03:37:45;;;;;;;31.00;16.30;;;;;;;0.92;100.00;94574.03;10484650;28;20270;-77
2021/04/05 03:42:50;;;;;;;31.25;16.08;;;;;;;1.09;100.00;94574.28;10484594;28;20031;-77
2021/04/05 03:47:58;;;;;;;30.48;16.52;;;;;;;1.07;100.00;94579.81;10483433;28;20526;-77
2021/04/05 03:53:12;;;;;;;31.13;16.47;;;;;;;0.84;100.00;94575.13;10484370;28;20033;-77
2021/04/05 03:58:19;;;;;;;30.58;16.10;;;;;;;0.68;100.00;94579.94;10484001;28;20035;-77
2021/04/05 04:03:32;;;;;;;27.33;14.43;;;;;;;0.53;100.00;94573.31;10482968;28;20025;-77
2021/04/05 04:08:45;;;;;;;30.48;16.92;;;;;;;0.40;100.00;94575.03;10484872;28;20503;-78
2021/04/05 04:13:47;;;;;;;30.50;17.85;;;;;;;0.44;100.00;94570.13;10482342;28;20032;-78
2021/04/05 04:18:49;;;;;;;31.70;15.95;;;;;;;0.39;100.00;94573.44;10483235;28;20029;-77
2021/04/05 04:23:49;;;;;;;33.22;17.85;;;;;;;0.39;100.00;94573.44;10457470;28;20083;-77
2021/04/05 04:28:50;;;;;;;36.67;17.00;;;;;;;0.48;100.00;94568.69;10468742;28;20028;-77
2021/04/05 04:33:51;;;;;;;31.02;14.82;;;;;;;0.51;100.00;94573.53;10482947;28;20523;-78
2021/04/05 04:38:55;;;;;;;33.55;17.75;;;;;;;0.51;100.00;94576.19;10483380;28;20028;-74
2021/04/05 04:44:01;;;;;;;31.95;17.38;;;;;;;0.58;100.00;94590.16;10483232;28;20475;-75
2021/04/05 04:49:05;;;;;;;33.90;17.48;;;;;;;0.76;100.00;94584.13;10483626;28;20032;-75
2021/04/05 04:54:08;;;;;;;31.13;17.17;;;;;;;1.00;100.00;94585.16;10482018;28;20032;-75
2021/04/05 04:59:10;;;;;;;33.00;17.02;;;;;;;1.11;100.00;94588.94;10493558;28;20039;-75
2021/04/05 05:04:16;;;;;;;37.05;18.55;;;;;;;1.32;100.00;94586.91;10451053;28;20039;-74
2021/04/05 05:09:17;;;;;;;32.15;17.27;;;;;;;1.31;100.00;94598.53;10439570;28;20111;-74
2021/04/05 05:14:19;;;;;;;36.92;19.75;;;;;;;1.30;100.00;94594.28;10438834;28;20488;-75
2021/04/05 05:19:20;;;;;;;38.58;21.13;;;;;;;1.52;100.00;94602.59;10442581;28;20057;-75
2021/04/05 05:24:22;;;;;;;38.15;18.92;;;;;;;1.75;100.00;94601.16;10476135;28;20029;-75
2021/04/05 05:29:23;;;;;;;39.40;20.35;;;;;;;1.86;100.00;94609.16;10441095;28;20029;-75
2021/04/05 05:34:24;;;;;;;40.63;21.13;;;;;;;2.21;100.00;94615.69;10448633;28;20033;-75
2021/04/05 05:39:25;;;;;;;43.20;21.77;;;;;;;2.16;100.00;94618.19;10449053;28;20033;-75
2021/04/05 05:44:52;;;;;;;36.00;20.00;;;;;;;2.22;100.00;94615.44;10448327;28;20449;-75
2021/04/05 05:50:10;;;;;;;37.08;19.40;;;;;;;2.36;100.00;94616.09;10448644;28;20029;-74
2021/04/05 05:55:20;;;;;;;;;;;;;;;3.00;100.00;94623.53;10448751;28;20033;-74
2021/04/05 06:00:24;;;;;;;30.10;16.48;;;;;;;3.67;100.00;94627.75;10483383;28;19992;-75
2021/04/05 06:05:34;;;;;;;34.00;19.15;;;;;;;3.93;100.00;94625.63;10487134;28;20404;-74
2021/04/05 06:10:44;;;;;;;34.10;16.92;;;;;;;5.65;100.00;94627.31;10490962;28;20434;-74
2021/04/05 06:16:23;;;;;;;29.98;16.13;;;;;;;7.01;100.00;94632.16;10492165;28;20028;-75
2021/04/05 06:21:32;;;;;;;26.02;14.48;;;;;;;8.15;100.00;94624.91;10483439;28;20047;-75
2021/04/05 06:26:59;;;;;;;26.52;15.57;;;;;;;8.01;94.39;94625.41;10492079;28;20109;-75
2021/04/05 06:32:12;;;;;;;31.63;17.10;;;;;;;9.38;92.55;94629.84;10491042;28;20449;-75
2021/04/05 06:37:38;;;;;;;24.67;15.02;;;;;;;9.47;89.12;94632.78;10491287;28;20087;-76
2021/04/05 06:42:47;;;;;;;24.88;13.00;;;;;;;10.09;79.49;94633.53;10490614;28;20510;-74
2021/04/05 06:48:38;;;;;;;20.67;12.68;;;;;;;7.96;80.53;94643.31;10490629;28;20088;-76
2021/04/05 06:54:21;;;;;;;28.25;13.43;;;;;;;9.65;78.09;94652.91;10481467;28;20622;-74
2021/04/05 06:59:57;;;;;;;29.65;12.73;;;;;;;10.97;65.69;94639.38;10469386;28;20033;-75
2021/04/05 07:05:33;;;;;;;23.92;13.57;;;;;;;11.36;65.99;94635.91;10448288;28;20105;-74
2021/04/05 07:10:37;;;;;;;22.20;13.25;;;;;;;12.62;56.06;94646.06;10446274;28;20041;-75
2021/04/05 07:16:17;;;;;;;22.70;13.57;;;;;;;13.89;49.56;94644.53;10444751;28;20033;-75
2021/04/05 07:21:31;;;;;;;22.02;12.10;;;;;;;14.61;48.50;94650.53;10442603;28;20875;-75
2021/04/05 07:26:41;;;;;;;21.80;13.02;;;;;;;14.74;45.51;94652.47;10442507;28;20029;-75
2021/04/05 07:31:49;;;;;;;22.38;12.43;;;;;;;15.55;47.66;94642.88;10444111;28;20415;-75
2021/04/05 07:37:04;;;;;;;23.95;13.85;;;;;;;14.56;47.77;94656.84;10444136;28;20523;-75
2021/04/05 07:42:14;;;;;;;23.50;13.90;;;;;;;12.57;55.44;94662.28;10443619;28;20582;-75
2021/04/05 07:47:28;;;;;;;25.63;14.77;;;;;;;10.96;58.90;94667.34;10443154;28;20086;-75
2021/04/05 07:52:41;;;;;;;29.50;15.98;;;;;;;9.85;74.57;94666.31;10443197;28;20060;-75
2021/04/05 07:57:55;;;;;;;25.85;15.00;;;;;;;8.83;77.11;94670.50;10442837;28;20852;-75
2021/04/05 08:03:15;;;;;;;26.90;13.30;;;;;;;8.27;82.61;94681.75;10442872;28;20056;-75
2021/04/05 08:08:34;;;;;;;32.55;16.73;;;;;;;7.56;90.80;94682.06;10442958;28;20084;-74
2021/04/05 08:13:47;;;;;;;27.35;14.55;;;;;;;7.75;93.92;94688.63;10443166;28;20357;-74
2021/04/05 08:19:15;;;;;;;23.38;13.18;;;;;;;7.74;85.70;94680.88;10442755;28;20029;-75
2021/04/05 08:24:30;;;;;;;23.65;13.85;;;;;;;6.88;92.66;94687.84;10421014;28;20117;-74
2021/04/05 08:29:45;;;;;;;27.98;14.30;;;;;;;5.91;100.00;94690.88;10442471;28;20030;-74
2021/04/05 08:35:18;;;;;;;42.20;16.67;;;;;;;6.59;100.00;94686.19;10460228;28;20032;-75
2021/04/05 08:40:29;;;;;;;26.40;13.32;;;;;;;7.03;98.29;94690.66;10483180;28;20056;-74
2021/04/05 08:45:43;;;;;;;24.48;13.57;;;;;;;7.87;93.14;94685.81;10482896;28;20090;-74
2021/04/05 08:50:50;;;;;;;23.00;12.65;;;;;;;7.99;83.72;94682.91;10481884;28;20070;-75
2021/04/05 08:55:52;;;;;;;25.38;12.38;;;;;;;7.37;86.20;94690.47;10481098;28;20051;-74
2021/04/05 09:00:58;;;;;;;16.85;9.63;;;;;;;8.24;71.45;94679.59;10482966;28;20438;-74
2021/04/05 09:05:59;;;;;;;21.55;10.20;;;;;;;9.08;65.28;94682.34;10479885;28;20036;-75
2021/04/05 09:11:05;;;;;;;16.02;10.25;;;;;;;10.77;58.04;94667.97;10481244;28;20107;-74
2021/04/05 09:16:08;;;;;;;15.43;9.32;;;;;;;11.85;49.19;94661.09;10480425;28;20028;-75
2021/04/05 09:21:45;;;;;;;15.57;9.13;;;;;;;13.15;43.94;94656.69;10482336;28;20531;-75
2021/04/05 09:27:07;;;;;;;18.15;10.55;;;;;;;11.84;50.04;94651.41;10482756;28;20021;-75
2021/04/05 09:32:34;;;;;;;15.00;9.73;;;;;;;9.14;56.81;94651.00;10481526;28;20028;-74
2021/04/05 09:37:53;;;;;;;18.08;10.40;;;;;;;8.64;62.24;94664.00;10482146;28;20110;-74
2021/04/05 09:43:23;;;;;;;15.68;9.00;;;;;;;9.52;58.64;94651.56;10482004;28;20029;-75
2021/04/05 09:48:39;;;;;;;19.40;8.93;;;;;;;11.43;63.00;94639.09;10481273;28;20115;-75
2021/04/05 09:54:04;;;;;;;12.30;7.85;;;;;;;11.96;47.37;94624.13;10480302;28;20027;-75
2021/04/05 09:59:08;;;;;;;13.02;7.50;;;;;;;14.60;42.29;94616.50;10482115;28;20029;-75
2021/04/05 10:04:11;;;;;;;12.02;7.78;;;;;;;17.82;37.07;94585.84;10480958;28;20062;-75
2021/04/05 10:09:12;;;;;;;11.70;7.43;;;;;;;18.66;35.16;94565.59;10481334;28;20052;-76
2021/04/05 10:14:21;;;;;;;12.82;8.57;;;;;;;17.43;35.84;94557.78;10476064;28;20029;-75
2021/04/05 10:19:56;;;;;;;14.05;9.10;;;;;;;17.08;40.45;94560.50;10445232;28;20041;-75
2021/04/05 10:24:58;;;;;;;13.90;7.55;;;;;;;19.26;32.26;94544.53;10445613;28;20051;-78
2021/04/05 10:30:02;;;;;;;12.98;7.97;;;;;;;21.28;31.81;94538.31;10446957;28;20031;-78
2021/04/05 10:35:03;;;;;;;10.38;7.35;;;;;;;22.36;29.00;94533.03;10446246;28;20177;-79
2021/04/05 10:40:10;;;;;;;13.35;8.80;;;;;;;20.13;32.85;94527.31;10446724;28;20033;-79
2021/04/05 10:45:24;;;;;;;13.30;8.50;;;;;;;19.00;34.08;94525.66;10446720;28;20025;-79
2021/04/05 10:50:27;;;;;;;11.88;7.78;;;;;;;19.64;32.16;94522.53;10446712;28;20020;-79
2021/04/05 10:55:29;;;;;;;10.00;7.13;;;;;;;21.73;32.04;94502.84;10446111;28;20064;-79
2021/04/05 11:00:41;;;;;;;10.10;7.13;;;;;;;22.50;28.86;94499.72;10444955;28;20048;-79
2021/04/05 11:05:42;;;;;;;6.88;5.63;;;;;;;22.27;29.83;94496.00;10445172;28;20033;-78
2021/04/05 11:10:45;;;;;;;12.10;7.63;;;;;;;22.15;29.78;94480.47;10446055;28;20033;-79
2021/04/05 11:15:47;;;;;;;11.07;7.47;;;;;;;20.30;32.08;94479.94;10445693;28;20029;-79
2021/04/05 11:20:50;;;;;;;13.13;8.73;;;;;;;18.16;33.89;94472.66;10444089;28;20021;-79
2021/04/05 11:25:58;;;;;;;15.43;8.27;;;;;;;17.92;35.97;94467.84;10445665;28;20480;-79
2021/04/05 11:31:15;;;;;;;12.77;8.90;;;;;;;14.99;37.13;94463.63;10444784;28;20033;-78
2021/04/05 11:36:16;;;;;;;16.38;9.27;;;;;;;11.96;49.51;94457.16;10458620;28;20029;-78
2021/04/05 11:41:18;;;;;;;12.38;8.57;;;;;;;10.73;50.54;94457.28;10444629;28;20039;-78
2021/04/05 11:46:21;;;;;;;14.60;9.20;;;;;;;10.45;50.39;94452.63;10443634;28;20488;-78
2021/04/05 11:51:23;;;;;;;13.27;8.40;;;;;;;10.04;60.83;94445.59;10444416;28;20090;-78
2021/04/05 11:56:26;;;;;;;14.88;9.45;;;;;;;9.88;60.83;94436.81;10443151;28;20021;-78
2021/04/05 12:01:35;;;;;;;17.77;9.55;;;;;;;10.26;61.05;94424.50;10443716;28;20384;-78
2021/04/05 12:06:39;;;;;;;15.00;9.45;;;;;;;9.69;52.22;94417.84;10442900;28;20496;-78
2021/04/05 12:11:50;;;;;;;19.63;9.85;;;;;;;9.61;59.41;94413.03;10443422;28;20135;-79
2021/04/05 12:16:53;;;;;;;13.77;8.90;;;;;;;10.10;57.41;94409.56;10443360;28;20061;-78
2021/04/05 12:21:54;;;;;;;14.70;8.55;;;;;;;10.30;50.88;94397.91;10443231;28;20033;-77
2021/04/05 12:26:58;;;;;;;12.52;8.20;;;;;;;10.49;52.55;94394.56;10442100;28;20025;-78
2021/04/05 12:32:02;;;;;;;17.95;8.85;;;;;;;10.52;49.70;94389.44;10443092;28;20029;-78
2021/04/05 12:37:11;;;;;;;16.33;9.20;;;;;;;10.41;51.72;94380.66;10441678;28;20094;-78
2021/04/05 12:42:13;;;;;;;15.25;9.07;;;;;;;10.11;51.20;94383.53;10441492;28;20020;-78
2021/04/05 12:47:16;;;;;;;14.60;9.35;;;;;;;9.89;52.64;94382.84;10440561;28;20538;-78
2021/04/05 12:52:19;;;;;;;20.13;11.52;;;;;;;9.84;56.32;94374.03;10440686;28;20508;-77
2021/04/05 12:57:34;;;;;;;17.20;9.50;;;;;;;10.11;55.19;94362.84;10439686;28;20025;-77
2021/04/05 13:02:38;;;;;;;15.48;8.93;;;;;;;10.29;52.28;94355.22;10441221;28;20074;-79
2021/04/05 13:08:06;;;;;;;15.73;9.15;;;;;;;10.25;50.86;94349.59;10441668;28;20049;-77
2021/04/05 13:13:11;;;;;;;15.70;9.65;;;;;;;10.53;53.29;94333.81;10412412;28;20094;-78
2021/04/05 13:18:25;;;;;;;14.48;8.60;;;;;;;10.63;50.77;94330.22;10441476;28;20048;-78
2021/04/05 13:23:27;;;;;;;13.80;8.57;;;;;;;10.41;50.08;94318.06;10456114;28;20462;-78
2021/04/05 13:28:29;;;;;;;13.02;8.50;;;;;;;10.37;55.04;94309.78;10479483;28;20412;-77
2021/04/05 13:33:30;;;;;;;27.42;13.57;;;;;;;10.44;54.01;94306.75;10481594;28;20048;-77
2021/04/05 13:38:32;;;;;;;23.63;11.40;;;;;;;10.14;53.58;94311.25;10482747;28;20029;-77
2021/04/05 13:43:36;;;;;;;20.48;10.77;;;;;;;9.94;55.69;94303.38;10485700;28;20039;-77
2021/04/05 13:48:39;;;;;;;26.02;9.82;;;;;;;9.88;54.09;94308.78;10481092;28;20030;-78
2021/04/05 13:53:41;;;;;;;18.42;10.18;;;;;;;10.05;53.26;94305.69;10487484;28;20062;-78
2021/04/05 13:58:51;;;;;;;20.90;10.63;;;;;;;9.85;56.59;94295.09;10489614;28;20078;-78
2021/04/05 14:03:56;;;;;;;21.02;11.57;;;;;;;9.87;55.47;94290.28;10489594;28;20529;-78
2021/04/05 14:08:57;;;;;;;20.92;11.23;;;;;;;9.77;56.50;94287.63;10489347;28;20060;-78
2021/04/05 14:13:58;;;;;;;21.70;11.80;;;;;;;9.78;58.28;94282.00;10488630;28;20506;-79
2021/04/05 14:19:30;;;;;;;24.17;11.93;;;;;;;9.65;61.57;94275.38;10489011;28;20028;-78
2021/04/05 14:24:34;;;;;;;28.10;13.30;;;;;;;9.68;62.22;94266.75;10487438;28;20463;-78
2021/04/05 14:29:52;;;;;;;20.98;11.70;;;;;;;9.73;62.17;94247.16;10488158;28;20031;-78
2021/04/05 14:34:55;;;;;;;18.97;11.93;;;;;;;9.71;59.91;94246.63;10455370;28;20090;-78
2021/04/05 14:40:03;;;;;;;22.50;13.43;;;;;;;9.63;59.44;94244.53;10475189;28;20036;-78
2021/04/05 14:45:14;;;;;;;21.45;11.00;;;;;;;9.65;62.36;94237.81;10487245;28;20028;-78
2021/04/05 14:50:16;;;;;;;20.15;10.13;;;;;;;9.56;62.69;94237.59;10487698;28;20029;-78
2021/04/05 14:55:22;;;;;;;20.13;11.45;;;;;;;9.52;59.52;94217.00;10469912;28;20037;-78
2021/04/05 15:00:29;;;;;;;20.52;11.00;;;;;;;9.31;59.69;94211.75;10445631;28;20032;-79
2021/04/05 15:05:47;;;;;;;20.50;11.40;;;;;;;9.26;66.21;94211.78;10478199;28;20043;-78
2021/04/05 15:10:52;;;;;;;19.50;11.80;;;;;;;9.29;63.19;94197.81;10486686;28;20039;-79
2021/04/05 15:15:59;;;;;;;17.58;10.07;;;;;;;9.32;63.50;94188.41;10486330;28;20032;-79
2021/04/05 15:21:04;;;;;;;18.02;10.93;;;;;;;9.28;64.41;94182.81;10446216;28;20033;-79
2021/04/05 15:26:07;;;;;;;22.85;10.93;;;;;;;9.32;64.43;94180.38;10444083;28;20102;-79
2021/04/05 15:31:16;;;;;;;16.85;9.63;;;;;;;9.30;63.24;94175.28;10445296;28;20029;-79
2021/04/05 15:36:27;;;;;;;19.33;10.80;;;;;;;9.22;65.13;94165.97;10444916;28;20415;-79
2021/04/05 15:41:31;;;;;;;16.95;10.05;;;;;;;9.15;68.27;94157.41;10443246;28;20056;-78
2021/04/05 15:46:35;;;;;;;21.70;9.60;;;;;;;8.96;69.02;94157.28;10442578;28;20187;-79
2021/04/05 15:51:39;;;;;;;19.38;9.32;;;;;;;8.96;67.61;94168.00;10442976;28;20029;-79
2021/04/05 15:56:46;;;;;;;14.80;9.07;;;;;;;8.86;69.23;94160.00;10443153;28;20033;-78
2021/04/05 16:01:54;;;;;;;19.17;10.43;;;;;;;8.89;69.65;94164.81;10464736;28;20043;-78
2021/04/05 16:07:02;;;;;;;17.67;9.40;;;;;;;8.84;70.08;94149.56;10484960;28;20048;-78
2021/04/05 16:12:12;;;;;;;19.20;9.30;;;;;;;8.87;72.08;94145.53;10484831;28;20043;-84
2021/04/05 16:17:27;;;;;;;16.33;9.25;;;;;;;8.76;78.06;94147.44;10486545;28;20472;-83
2021/04/05 16:22:31;;;;;;;15.65;8.93;;;;;;;8.75;76.32;94140.50;10447083;28;20067;-85
2021/04/05 16:27:35;;;;;;;16.80;8.98;;;;;;;8.62;76.32;94125.03;10446057;28;20029;-83
2021/04/05 16:32:41;;;;;;;19.08;10.52;;;;;;;8.49;77.11;94126.44;10445590;28;20028;-80
2021/04/05 16:37:42;;;;;;;17.48;11.18;;;;;;;8.39;77.65;94122.69;10447510;28;20028;-81
2021/04/05 16:42:47;;;;;;;17.05;9.35;;;;;;;8.30;78.90;94124.34;10446044;28;20036;-80
2021/04/05 16:47:50;;;;;;;22.48;11.52;;;;;;;8.26;79.04;94117.94;10444686;28;20033;-80
2021/04/05 16:52:57;;;;;;;19.67;10.35;;;;;;;8.22;80.16;94124.91;10444693;28;20029;-80
2021/04/05 16:58:11;;;;;;;17.83;10.02;;;;;;;8.15;80.68;94119.03;10473981;28;20047;-80
2021/04/05 17:03:17;;;;;;;27.20;11.68;;;;;;;8.12;80.74;94109.69;10477180;28;20055;-83
2021/04/05 17:08:24;;;;;;;20.27;10.63;;;;;;;8.08;84.42;94110.47;10485240;28;20060;-80
2021/04/05 17:13:31;;;;;;;21.17;10.90;;;;;;;7.87;91.46;94107.88;10468437;28;20515;-80
2021/04/05 17:18:35;;;;;;;18.23;10.63;;;;;;;7.78;96.73;94096.13;10463127;28;20115;-80
2021/04/05 17:23:41;;;;;;;24.02;12.65;;;;;;;7.40;100.00;94111.69;10445172;28;20812;-81
2021/04/05 17:28:48;;;;;;;25.88;14.90;;;;;;;7.12;100.00;94119.19;10453218;28;20104;-81
2021/04/05 17:33:54;;;;;;;23.05;13.93;;;;;;;6.89;100.00;94131.16;10472962;28;20020;-79
2021/04/05 17:39:04;;;;;;;27.30;14.38;;;;;;;6.56;100.00;94133.22;10492517;28;20503;-79
2021/04/05 17:44:09;;;;;;;32.50;15.00;;;;;;;6.41;100.00;94136.66;10492623;28;20103;-78
2021/04/05 17:49:39;;;;;;;25.95;15.43;;;;;;;6.36;100.00;94126.75;10491946;28;20450;-78
2021/04/05 17:54:48;;;;;;;26.13;13.70;;;;;;;6.33;100.00;94144.09;10492955;28;20094;-79
2021/04/05 18:00:09;;;;;;;28.05;13.85;;;;;;;6.32;100.00;94137.16;10491118;28;20070;-78
2021/04/05 18:05:13;;;;;;;35.92;13.32;;;;;;;6.28;100.00;94138.72;10494723;28;20524;-78
2021/04/05 18:10:30;;;;;;;33.83;14.82;;;;;;;6.21;100.00;94138.19;10489332;28;20503;-79
2021/04/05 18:15:41;;;;;;;27.95;13.10;;;;;;;6.07;100.00;94132.50;10490314;28;20029;-79
2021/04/05 18:20:47;;;;;;;26.33;13.52;;;;;;;5.96;100.00;94133.50;10491031;28;20041;-77
2021/04/05 18:26:06;;;;;;;28.77;15.38;;;;;;;5.83;100.00;94134.72;10459216;28;20099;-78
2021/04/05 18:31:23;;;;;;;41.65;15.05;;;;;;;5.82;100.00;94143.81;10449079;28;20119;-78
2021/04/05 18:36:42;;;;;;;32.08;16.02;;;;;;;5.70;100.00;94133.31;10446535;28;20036;-78
2021/04/05 18:41:43;;;;;;;34.63;17.13;;;;;;;5.55;100.00;94136.69;10448771;28;20063;-78
2021/04/05 18:46:56;;;;;;;34.45;18.15;;;;;;;5.60;100.00;94135.94;10448539;28;20025;-79
2021/04/05 18:52:13;;;;;;;35.20;16.50;;;;;;;5.54;100.00;94137.75;10447573;28;20032;-78
2021/04/05 18:57:21;;;;;;;42.15;18.23;;;;;;;5.50;100.00;94136.66;10469809;28;20029;-78
2021/04/05 19:02:28;;;;;;;;;;;;;;;5.54;100.00;94135.09;10465681;28;20043;-78
2021/04/05 19:07:36;;;;;;;38.53;17.75;;;;;;;5.46;100.00;94128.38;10447872;28;20261;-78
2021/04/05 19:12:40;;;;;;;35.85;17.13;;;;;;;5.49;100.00;94129.72;10447423;28;20226;-78
2021/04/05 19:17:57;;;;;;;38.75;17.83;;;;;;;5.44;100.00;94129.69;10446230;28;20881;-78
2021/04/05 19:23:39;;;;;;;26.05;12.52;;;;;;;5.31;100.00;94117.59;10474763;28;20425;-78
2021/04/05 19:29:04;;;;;;;34.72;14.45;;;;;;;5.34;100.00;94121.63;10444735;28;20048;-74
2021/04/05 19:34:43;;;;;;;27.42;13.98;;;;;;;5.35;100.00;94121.38;10445432;28;20400;-74
2021/04/05 19:40:11;;;;;;;24.98;11.10;;;;;;;5.33;100.00;94114.69;10446629;28;20106;-74
2021/04/05 19:45:21;;;;;;;24.27;11.80;;;;;;;5.42;100.00;94118.50;10445307;28;20028;-74
2021/04/05 19:50:42;;;;;;;17.77;8.77;;;;;;;5.31;100.00;94117.59;10444025;28;20025;-74
2021/04/05 19:56:15;;;;;;;25.08;8.93;;;;;;;5.35;100.00;94118.69;10445511;28;20029;-78
2021/04/05 20:01:27;;;;;;;20.63;9.70;;;;;;;5.33;100.00;94122.69;10445592;28;20028;-79
2021/04/05 20:06:46;;;;;;;21.70;11.00;;;;;;;5.20;100.00;94127.38;10444562;28;20080;-79
2021/04/05 20:12:11;;;;;;;25.15;11.23;;;;;;;5.17;100.00;94127.09;10444499;28;20036;-79
2021/04/05 20:17:24;;;;;;;20.13;9.88;;;;;;;5.06;100.00;94131.53;10455708;28;20040;-78
2021/04/05 20:22:41;;;;;;;14.82;8.77;;;;;;;5.05;100.00;94130.72;10463309;28;20119;-78
2021/04/05 20:27:47;;;;;;;17.73;9.75;;;;;;;4.93;100.00;94130.88;10484707;28;20446;-78
2021/04/05 20:33:12;;;;;;;19.90;11.18;;;;;;;4.75;100.00;94129.38;10486177;28;20056;-78
2021/04/05 20:38:25;;;;;;;31.60;14.93;;;;;;;4.69;100.00;94132.22;10484909;28;20036;-79
2021/04/05 20:43:29;;;;;;;22.02;12.15;;;;;;;4.44;100.00;94131.72;10485112;28;20135;-78
2021/04/05 20:49:01;;;;;;;14.57;8.15;;;;;;;4.46;100.00;94123.50;10486048;28;20110;-79
2021/04/05 20:54:21;;;;;;;16.55;9.85;;;;;;;4.49;100.00;94116.88;10480765;28;20061;-79
2021/04/05 20:59:28;;;;;;;11.68;7.65;;;;;;;4.52;100.00;94111.88;10447880;28;20098;-79
2021/04/05 21:04:37;;;;;;;13.57;8.15;;;;;;;4.57;100.00;94111.09;10450067;28;20029;-79
2021/04/05 21:09:37;;;;;;;13.38;7.53;;;;;;;4.56;100.00;94115.63;10444230;28;20120;-79
2021/04/05 21:14:41;;;;;;;17.65;8.60;;;;;;;4.60;100.00;94111.41;10443259;28;20219;-79
2021/04/05 21:19:45;;;;;;;28.05;14.95;;;;;;;4.08;100.00;94115.34;10443550;28;20404;-79
2021/04/05 21:24:50;;;;;;;31.90;17.13;;;;;;;3.92;100.00;94106.38;10443897;28;20016;-79
2021/04/05 21:30:03;;;;;;;39.90;17.73;;;;;;;3.65;100.00;94098.31;10443701;28;20036;-79
2021/04/05 21:35:10;;;;;;;38.10;18.42;;;;;;;3.63;100.00;94087.16;10443392;28;20400;-79
2021/04/05 21:40:42;;;;;;;32.75;19.95;;;;;;;3.74;100.00;94090.72;10442687;28;20126;-79
2021/04/05 21:45:49;;;;;;;39.45;19.48;;;;;;;3.65;100.00;94095.66;10439119;28;20033;-79
2021/04/05 21:50:56;;;;;;;40.55;21.27;;;;;;;3.57;100.00;94090.78;10442036;28;20091;-79
2021/04/05 21:56:01;;;;;;;50.92;26.15;;;;;;;3.35;100.00;94099.50;10460775;28;20021;-80
2021/04/05 22:01:03;;;;;;;62.22;28.30;;;;;;;3.39;100.00;94097.16;10484944;28;20403;-79
2021/04/05 22:06:05;;;;;;;57.92;28.80;;;;;;;3.44;100.00;94091.94;10484843;28;20109;-79
2021/04/05 22:11:08;;;;;;;57.95;27.88;;;;;;;3.35;100.00;94080.09;10484738;28;20028;-79
2021/04/05 22:16:10;;;;;;;63.78;31.17;;;;;;;3.31;100.00;94078.97;10492707;28;20024;-79
2021/04/05 22:21:22;;;;;;;60.85;32.10;;;;;;;3.22;100.00;94066.13;10491681;28;20024;-79
2021/04/05 22:26:26;;;;;;;73.70;33.97;;;;;;;3.39;100.00;94054.66;10491650;28;20035;-79
2021/04/05 22:31:28;;;;;;;65.63;32.50;;;;;;;3.19;100.00;94042.72;10492223;28;20479;-80
2021/04/05 22:36:33;;;;;;;65.15;34.72;;;;;;;3.34;100.00;94057.28;10491747;28;20055;-79
2021/04/05 22:41:43;;;;;;;60.22;31.67;;;;;;;3.32;100.00;94052.19;10456181;28;20032;-79
2021/04/05 22:46:45;;;;;;;61.08;32.17;;;;;;;3.15;100.00;94051.41;10450055;28;20029;-80
2021/04/05 22:51:46;;;;;;;63.70;31.85;;;;;;;3.14;100.00;94058.59;10448074;28;20032;-79
2021/04/05 22:56:47;;;;;;;65.57;33.33;;;;;;;3.18;100.00;94037.66;10449838;28;20130;-79
2021/04/05 23:01:59;;;;;;;60.60;31.55;;;;;;;2.77;100.00;94035.19;10451316;28;20498;-83
2021/04/05 23:06:59;;;;;;;62.08;30.77;;;;;;;2.78;100.00;94020.88;10453612;28;20111;-84
2021/04/05 23:12:11;;;;;;;57.33;31.55;;;;;;;2.73;100.00;94013.66;10454130;28;20063;-84
2021/04/05 23:17:12;;;;;;;62.60;31.75;;;;;;;2.75;100.00;94005.44;10453916;28;20028;-84
2021/04/05 23:22:16;;;;;;;62.72;32.42;;;;;;;2.50;100.00;93990.75;10454324;28;20031;-84
2021/04/05 23:27:26;;;;;;;76.38;33.03;;;;;;;2.22;100.00;94010.16;10453533;28;20021;-84
2021/04/05 23:32:30;;;;;;;63.22;32.50;;;;;;;2.39;100.00;93991.63;10452644;28;20120;-84